Flight Track Log - Related Links

Times and Time Zones

All times are in EDT time to prevent confusion due to time zone crossing. See the UCA3598 flight status page for this flight to view local times or setup timezone preferences in your user account.

Time Position Orientation Groundspeed Altitude Reporting Facility
EDT Latitude Longitude Course Direction KTS MPH feet Rate Location/Type
Tue 10:11:18 PM 38.9500 -77.5500 North 185 213 2,300  Level Potomac TRACON
Tue 10:12:18 PM 38.9667 -77.6167 288° West 191 220 4,100 1,350 Climbing Potomac TRACON
Tue 10:13:18 PM 38.9833 -77.6833 288° West 207 238 5,000 450 Climbing Potomac TRACON
Tue 10:14:18 PM 39.0000 -77.7667 284° West 234 269 5,000  Level Potomac TRACON
Tue 10:15:00 PM 39.3433 -77.2882 North  Level Estimated
Tue 10:15:12 PM 39.0500 -77.7667 360° North 250 288 5,000  Level Potomac TRACON
Tue 10:16:00 PM 39.4038 -77.2618 North  Level Estimated
Tue 10:16:12 PM 39.1072 -77.7208 32° Northeast 258 297 5,600  Level Washington Center
Tue 10:17:14 PM 39.1333 -77.6600 61° Northeast 235 270 6,000 787 Climbing Washington Center
Tue 10:18:14 PM 39.1944 -77.6164 29° Northeast 231 266 7,200 1,475 Climbing Washington Center
Tue 10:19:12 PM 39.2506 -77.6178 359° North 206 237 8,900 1,576 Climbing Washington Center
Tue 10:20:12 PM 39.3069 -77.6139 North 206 237 10,300 1,400 Climbing Washington Center
Tue 10:21:12 PM 39.3633 -77.6047 North 206 237 11,700 1,476 Climbing Washington Center
Tue 10:22:18 PM 39.4333 -77.6000 North 201 231 13,400 1,190 Climbing Potomac TRACON
Tue 10:23:13 PM 39.4719 -77.5917 North 207 238 14,100 842 Climbing Washington Center
Tue 10:24:12 PM 39.5306 -77.5825 North 214 246 15,000 276 Climbing Washington Center
Tue 10:26:29 PM 39.6614 -77.4539 37° Northeast 256 295 15,000 305 Level New Center
Tue 10:27:29 PM 39.7408 -77.4533 360° North 251 289 16,000 500 Climbing New Center
Tue 10:28:29 PM 39.8056 -77.4514 North 251 289 16,000 250 Level New Center
Tue 10:29:29 PM 39.8869 -77.4483 North 251 289 16,500 900 Climbing New Center
Tue 10:30:29 PM 39.9453 -77.4486 360° North 245 282 17,800 950 Climbing New Center
Tue 10:31:29 PM 40.0161 -77.4497 359° North 231 266 18,400 600 Climbing New Center
Tue 10:32:29 PM 40.0678 -77.4194 24° Northeast 220 253 19,000 300 Climbing New Center
Tue 10:33:29 PM 40.1372 -77.3744 26° Northeast 242 278 19,000  Level New Center
Tue 10:34:29 PM 40.2000 -77.3342 26° Northeast 265 305 19,000  Level New Center
Tue 10:35:29 PM 40.2756 -77.2842 27° Northeast 271 312 19,000  Level New Center
Tue 10:36:29 PM 40.3361 -77.2436 27° Northeast 271 312 19,000  Level New Center
Tue 10:37:29 PM 40.4119 -77.1936 27° Northeast 271 312 19,000  Level New Center
Tue 10:38:29 PM 40.4744 -77.1531 26° Northeast 271 312 19,000  Level New Center
Tue 10:39:29 PM 40.5503 -77.1025 27° Northeast 271 312 19,000  Level New Center
Tue 10:40:29 PM 40.6128 -77.0644 25° Northeast 271 312 19,000  Level New Center
Tue 10:41:29 PM 40.6883 -77.0139 27° Northeast 271 312 19,000 -347 Level New Center
Tue 10:42:30 PM 40.7508 -76.9731 26° Northeast 271 312 18,300 -700 Descending New Center
Tue 10:43:29 PM 40.8286 -76.9197 27° Northeast 276 318 17,600 -807 Descending New Center
Tue 10:44:29 PM 40.8936 -76.8761 27° Northeast 276 318 16,700 -1,000 Descending New Center
Tue 10:45:29 PM 40.9733 -76.8256 26° Northeast 276 318 15,600 -850 Descending New Center
Tue 10:46:29 PM 41.0336 -76.7842 27° Northeast 276 318 15,000 -300 Descending New Center
Tue 10:47:29 PM 41.1028 -76.7381 27° Northeast 276 318 15,000  Level New Center
Tue 10:48:29 PM 41.1694 -76.6944 26° Northeast 271 312 15,000  Level New Center
Tue 10:49:29 PM 41.2342 -76.6475 29° Northeast 271 312 15,000  Level New Center
Tue 10:50:29 PM 41.3056 -76.5986 27° Northeast 271 312 15,000  Level New Center
Tue 10:51:29 PM 41.3700 -76.5569 26° Northeast 271 312 15,000  Level New Center
Tue 10:52:29 PM 41.4347 -76.5100 29° Northeast 266 306 15,000  Level New Center
Tue 10:53:29 PM 41.4928 -76.4736 25° Northeast 266 306 15,000 -300 Level New Center
Tue 10:54:29 PM 41.5597 -76.4264 28° Northeast 266 306 14,400 -1,000 Descending New Center
Tue 10:55:29 PM 41.6350 -76.3744 27° Northeast 272 313 13,000 -1,400 Descending New Center
Tue 10:56:29 PM 41.7058 -76.3278 26° Northeast 277 319 11,600 -1,400 Descending New Center
Tue 10:57:29 PM 41.7725 -76.2833 26° Northeast 272 313 10,200 -1,450 Descending New Center
Tue 10:58:29 PM 41.8308 -76.2408 28° Northeast 272 313 8,700 -1,600 Descending New Center
Tue 10:59:29 PM 41.9039 -76.1911 27° Northeast 267 307 7,000 -1,550 Descending New Center
Tue 11:00:29 PM 41.9642 -76.1458 29° Northeast 267 307 5,600 -1,300 Descending New Center
Tue 11:01:29 PM 42.0228 -76.0919 34° Northeast 257 296 4,400 -850 Descending New Center
Tue 11:02:29 PM 42.0728 -76.0428 36° Northeast 251 289 3,900 -500 Descending New Center
Tue 11:03:29 PM 42.1144 -75.9958 40° Northeast 226 260 3,400 -550 Descending New Center
Tue 11:04:29 PM 42.1472 -75.9592 40° Northeast 182 209 2,800 -600 Descending New Center
Tue 11:05:29 PM 42.1839 -75.9286 32° Northeast 147 169 2,200 3,100 Descending New Center
Tue 11:06:29 PM 42.2167 -75.8947 37° Northeast 147 169 9,000 3,400 Climbing New Center
Tue 11:07:29 PM 42.2492 -75.8636 35° Northeast 147 169 9,000  Level New Center
Tue 11:08:29 PM 42.2819 -75.8297 37° Northeast 147 169 9,000  Level New Center
Tue 11:09:29 PM 42.3081 -75.8036 36° Northeast 147 169 9,000  Level New Center

Login

Don't have an account? Register now (free) for customized features, flight alerts, and more!